Etusivu
METAR-TAF:

METAR-TAF

Lentoasemat :

Senoun kansainvälinen lentoasema

Bamako, Mali

Leveyspiiri: 12-32N, Pituuspiiri: 007-57W, korkeus merenpinnasta: 380 m

Tämänhetkinen sää

Tämä raportti tehtiin 43 minuuttia sitten, kello 10.30 UTC
Tuuli 6 kn idästä/koillisesta, vaihdellen koillisen ja idän/kaakon välillä
Lämpötila 29°C
Kosteus 16%
Ilmanpaine 1016 hPa
Näkyvyys 10 km tai enemmän
ei pilviä alle 1500 m:ssä eikä cumulonimbus-pilviä

METAR: GABS 151030Z 07006KT 040V110 CAVOK 29/01 Q1016 NOSIG

Aika: 11:13 (11:13 UTC)

Sääennuste

Tämä raportti tehtiin 6 tuntia ja 13 minuuttia sitten, kello 05.00 UTC
Ennuste voimassa 15. päivästä klo 06 UTC - 16. päivään klo 12 UTC
Tuuli 10 kn koillisesta
Näkyvyys 10 km tai enemmän
ei pilviä alle 1500 m:ssä eikä cumulonimbus-pilviä

TAF: GABS 150500Z 1506/1612 05010KT CAVOK

Säähavainnot ja -ennusteet yli 4000 lentoasemalta (METAR- ja TAF-raportit).

Käytössä olevat sääasemat on merkitty karttaan keltaisilla ja punaisilla pisteillä.

Aseta hiiri pisteen päälle nähdäksesi sääaseman nimen.

Klikkaa sitten nähdäksesi säähavainnot ja -ennusteet.

Kartan vaihtaminen: klikkaa mustalla rastilla varustettuja vihreitä pisteitä, niin voit zoomata sisään; viivalla varustettua vihreää pistettä, niin voit zoomata ulos tai vihreitä nuolia, niin pääset viereisille kartoille.


METAR-TAF: